sensor_id;sensor_type;location;lat;lon;timestamp;P1;durP1;ratioP1;P2;durP2;ratioP2
58982;SDS011;44771;49.982;8.560;2024-03-02T00:04:11;25.00;;;23.60;;
58982;SDS011;44771;49.982;8.560;2024-03-02T00:09:13;27.62;;;25.02;;
58982;SDS011;44771;49.982;8.560;2024-03-02T00:14:19;27.35;;;25.62;;
58982;SDS011;44771;49.982;8.560;2024-03-02T00:19:24;24.70;;;23.30;;
58982;SDS011;44771;49.982;8.560;2024-03-02T00:24:28;26.27;;;23.98;;
58982;SDS011;44771;49.982;8.560;2024-03-02T00:29:44;24.87;;;23.48;;
58982;SDS011;44771;49.982;8.560;2024-03-02T00:34:46;26.33;;;24.42;;
58982;SDS011;44771;49.982;8.560;2024-03-02T00:39:48;22.58;;;21.27;;
58982;SDS011;44771;49.982;8.560;2024-03-02T00:44:55;23.60;;;22.25;;
58982;SDS011;44771;49.982;8.560;2024-03-02T00:49:57;26.40;;;24.65;;
58982;SDS011;44771;49.982;8.560;2024-03-02T00:54:59;26.92;;;25.10;;
58982;SDS011;44771;49.982;8.560;2024-03-02T01:00:10;27.10;;;25.67;;
58982;SDS011;44771;49.982;8.560;2024-03-02T01:05:13;27.13;;;25.62;;
58982;SDS011;44771;49.982;8.560;2024-03-02T01:10:17;25.95;;;24.33;;
58982;SDS011;44771;49.982;8.560;2024-03-02T01:15:20;25.23;;;23.92;;
58982;SDS011;44771;49.982;8.560;2024-03-02T01:20:22;25.65;;;24.35;;
58982;SDS011;44771;49.982;8.560;2024-03-02T01:25:27;25.02;;;23.60;;
58982;SDS011;44771;49.982;8.560;2024-03-02T01:30:56;26.60;;;24.92;;
58982;SDS011;44771;49.982;8.560;2024-03-02T01:35:58;26.40;;;24.77;;
58982;SDS011;44771;49.982;8.560;2024-03-02T01:41:00;26.75;;;25.25;;
58982;SDS011;44771;49.982;8.560;2024-03-02T01:46:03;26.52;;;25.12;;
58982;SDS011;44771;49.982;8.560;2024-03-02T01:51:05;26.35;;;24.65;;
58982;SDS011;44771;49.982;8.560;2024-03-02T01:56:08;22.98;;;21.48;;
58982;SDS011;44771;49.982;8.560;2024-03-02T02:01:11;26.83;;;25.12;;
58982;SDS011;44771;49.982;8.560;2024-03-02T02:06:13;25.85;;;24.02;;
58982;SDS011;44771;49.982;8.560;2024-03-02T02:11:15;25.95;;;24.35;;
58982;SDS011;44771;49.982;8.560;2024-03-02T02:16:19;25.50;;;23.98;;
58982;SDS011;44771;49.982;8.560;2024-03-02T02:21:25;24.10;;;22.70;;
58982;SDS011;44771;49.982;8.560;2024-03-02T02:26:27;25.75;;;24.10;;
58982;SDS011;44771;49.982;8.560;2024-03-02T02:31:40;26.45;;;24.92;;
58982;SDS011;44771;49.982;8.560;2024-03-02T02:36:47;25.85;;;24.33;;
58982;SDS011;44771;49.982;8.560;2024-03-02T02:41:49;25.10;;;23.80;;
58982;SDS011;44771;49.982;8.560;2024-03-02T02:46:51;26.20;;;24.60;;
58982;SDS011;44771;49.982;8.560;2024-03-02T02:51:54;25.35;;;24.15;;
58982;SDS011;44771;49.982;8.560;2024-03-02T02:56:56;24.92;;;23.20;;
58982;SDS011;44771;49.982;8.560;2024-03-02T03:01:58;28.00;;;25.98;;
58982;SDS011;44771;49.982;8.560;2024-03-02T03:07:01;25.15;;;23.30;;
58982;SDS011;44771;49.982;8.560;2024-03-02T03:12:03;26.83;;;25.10;;
58982;SDS011;44771;49.982;8.560;2024-03-02T03:17:05;27.65;;;25.85;;
58982;SDS011;44771;49.982;8.560;2024-03-02T03:22:09;25.65;;;24.17;;
58982;SDS011;44771;49.982;8.560;2024-03-02T03:27:11;24.75;;;23.45;;
58982;SDS011;44771;49.982;8.560;2024-03-02T03:32:13;24.77;;;23.48;;
58982;SDS011;44771;49.982;8.560;2024-03-02T03:37:16;26.70;;;24.80;;
58982;SDS011;44771;49.982;8.560;2024-03-02T03:42:18;26.08;;;24.45;;
58982;SDS011;44771;49.982;8.560;2024-03-02T03:47:20;25.15;;;23.65;;
58982;SDS011;44771;49.982;8.560;2024-03-02T03:52:23;26.50;;;24.30;;
58982;SDS011;44771;49.982;8.560;2024-03-02T03:57:25;26.48;;;25.00;;
58982;SDS011;44771;49.982;8.560;2024-03-02T04:02:27;27.35;;;25.73;;
58982;SDS011;44771;49.982;8.560;2024-03-02T04:07:30;26.40;;;24.80;;
58982;SDS011;44771;49.982;8.560;2024-03-02T04:12:32;28.10;;;26.25;;
58982;SDS011;44771;49.982;8.560;2024-03-02T04:17:37;24.52;;;23.00;;
58982;SDS011;44771;49.982;8.560;2024-03-02T04:22:45;27.00;;;24.30;;
58982;SDS011;44771;49.982;8.560;2024-03-02T04:27:47;24.65;;;23.17;;
58982;SDS011;44771;49.982;8.560;2024-03-02T04:32:49;27.08;;;25.58;;
58982;SDS011;44771;49.982;8.560;2024-03-02T04:37:52;25.37;;;23.98;;
58982;SDS011;44771;49.982;8.560;2024-03-02T04:42:54;24.20;;;22.87;;
58982;SDS011;44771;49.982;8.560;2024-03-02T04:47:56;26.98;;;25.25;;
58982;SDS011;44771;49.982;8.560;2024-03-02T04:52:59;25.30;;;23.83;;
58982;SDS011;44771;49.982;8.560;2024-03-02T04:58:01;25.20;;;23.75;;
58982;SDS011;44771;49.982;8.560;2024-03-02T05:03:03;27.13;;;25.58;;
58982;SDS011;44771;49.982;8.560;2024-03-02T05:08:07;26.20;;;24.42;;
58982;SDS011;44771;49.982;8.560;2024-03-02T05:13:09;27.92;;;26.15;;
58982;SDS011;44771;49.982;8.560;2024-03-02T05:18:10;27.67;;;25.88;;
58982;SDS011;44771;49.982;8.560;2024-03-02T05:23:14;26.67;;;25.08;;
58982;SDS011;44771;49.982;8.560;2024-03-02T05:28:15;25.27;;;23.80;;
58982;SDS011;44771;49.982;8.560;2024-03-02T05:33:17;24.87;;;23.35;;
58982;SDS011;44771;49.982;8.560;2024-03-02T05:38:21;24.60;;;23.30;;
58982;SDS011;44771;49.982;8.560;2024-03-02T05:43:23;26.90;;;25.27;;
58982;SDS011;44771;49.982;8.560;2024-03-02T05:48:25;26.25;;;24.37;;
58982;SDS011;44771;49.982;8.560;2024-03-02T05:53:31;29.02;;;27.15;;
58982;SDS011;44771;49.982;8.560;2024-03-02T05:58:33;26.23;;;24.10;;
58982;SDS011;44771;49.982;8.560;2024-03-02T06:03:35;25.50;;;24.02;;
58982;SDS011;44771;49.982;8.560;2024-03-02T06:08:39;25.98;;;24.42;;
58982;SDS011;44771;49.982;8.560;2024-03-02T06:13:41;25.92;;;24.52;;
58982;SDS011;44771;49.982;8.560;2024-03-02T06:18:45;28.67;;;26.10;;
58982;SDS011;44771;49.982;8.560;2024-03-02T06:23:48;28.52;;;26.23;;
58982;SDS011;44771;49.982;8.560;2024-03-02T06:28:50;28.10;;;26.33;;
58982;SDS011;44771;49.982;8.560;2024-03-02T06:33:52;26.27;;;24.60;;
58982;SDS011;44771;49.982;8.560;2024-03-02T06:38:55;28.08;;;26.08;;
58982;SDS011;44771;49.982;8.560;2024-03-02T06:43:57;26.23;;;24.65;;
58982;SDS011;44771;49.982;8.560;2024-03-02T06:48:59;27.10;;;25.42;;
58982;SDS011;44771;49.982;8.560;2024-03-02T06:54:02;26.37;;;24.63;;
58982;SDS011;44771;49.982;8.560;2024-03-02T06:59:04;25.88;;;24.45;;
58982;SDS011;44771;49.982;8.560;2024-03-02T07:04:06;25.75;;;24.05;;
58982;SDS011;44771;49.982;8.560;2024-03-02T07:09:10;26.52;;;24.92;;
58982;SDS011;44771;49.982;8.560;2024-03-02T07:14:11;25.77;;;23.87;;
58982;SDS011;44771;49.982;8.560;2024-03-02T07:19:13;28.90;;;26.98;;
58982;SDS011;44771;49.982;8.560;2024-03-02T07:24:17;27.90;;;26.20;;
58982;SDS011;44771;49.982;8.560;2024-03-02T07:29:21;27.62;;;25.75;;
58982;SDS011;44771;49.982;8.560;2024-03-02T07:34:22;28.30;;;26.48;;
58982;SDS011;44771;49.982;8.560;2024-03-02T07:39:26;29.58;;;27.13;;
58982;SDS011;44771;49.982;8.560;2024-03-02T07:44:28;28.27;;;25.67;;
58982;SDS011;44771;49.982;8.560;2024-03-02T07:49:30;25.90;;;24.27;;
58982;SDS011;44771;49.982;8.560;2024-03-02T07:54:33;26.75;;;24.98;;
58982;SDS011;44771;49.982;8.560;2024-03-02T07:59:38;27.30;;;24.75;;
58982;SDS011;44771;49.982;8.560;2024-03-02T08:04:43;26.73;;;24.80;;
58982;SDS011;44771;49.982;8.560;2024-03-02T08:09:46;27.85;;;25.37;;
58982;SDS011;44771;49.982;8.560;2024-03-02T08:14:48;26.70;;;24.58;;
58982;SDS011;44771;49.982;8.560;2024-03-02T08:19:50;24.27;;;22.73;;
58982;SDS011;44771;49.982;8.560;2024-03-02T08:24:53;28.52;;;24.25;;
58982;SDS011;44771;49.982;8.560;2024-03-02T08:29:56;25.62;;;23.35;;
58982;SDS011;44771;49.982;8.560;2024-03-02T08:34:58;28.33;;;25.67;;
58982;SDS011;44771;49.982;8.560;2024-03-02T08:40:01;27.23;;;25.00;;
58982;SDS011;44771;49.982;8.560;2024-03-02T08:45:04;27.48;;;25.00;;
58982;SDS011;44771;49.982;8.560;2024-03-02T08:50:06;26.30;;;24.05;;
58982;SDS011;44771;49.982;8.560;2024-03-02T08:55:10;30.98;;;24.77;;
58982;SDS011;44771;49.982;8.560;2024-03-02T09:00:12;26.55;;;24.15;;
58982;SDS011;44771;49.982;8.560;2024-03-02T09:05:15;26.77;;;24.55;;
58982;SDS011;44771;49.982;8.560;2024-03-02T09:10:19;28.05;;;25.33;;
58982;SDS011;44771;49.982;8.560;2024-03-02T09:15:21;25.35;;;22.92;;
58982;SDS011;44771;49.982;8.560;2024-03-02T09:20:23;26.20;;;24.20;;
58982;SDS011;44771;49.982;8.560;2024-03-02T09:25:26;26.90;;;24.67;;
58982;SDS011;44771;49.982;8.560;2024-03-02T09:30:28;26.50;;;23.73;;
58982;SDS011;44771;49.982;8.560;2024-03-02T09:35:30;24.35;;;22.10;;
58982;SDS011;44771;49.982;8.560;2024-03-02T09:40:37;24.98;;;22.87;;
58982;SDS011;44771;49.982;8.560;2024-03-02T09:45:42;27.37;;;24.85;;
58982;SDS011;44771;49.982;8.560;2024-03-02T09:50:45;24.08;;;21.90;;
58982;SDS011;44771;49.982;8.560;2024-03-02T09:55:52;25.37;;;23.52;;
58982;SDS011;44771;49.982;8.560;2024-03-02T10:00:57;24.95;;;23.12;;
58982;SDS011;44771;49.982;8.560;2024-03-02T10:11:27;25.35;;;23.35;;
58982;SDS011;44771;49.982;8.560;2024-03-02T10:16:30;23.75;;;21.65;;
58982;SDS011;44771;49.982;8.560;2024-03-02T10:21:32;25.92;;;24.12;;
58982;SDS011;44771;49.982;8.560;2024-03-02T10:26:35;23.30;;;21.37;;
58982;SDS011;44771;49.982;8.560;2024-03-02T10:31:37;25.80;;;23.85;;
58982;SDS011;44771;49.982;8.560;2024-03-02T10:36:40;24.23;;;22.55;;
58982;SDS011;44771;49.982;8.560;2024-03-02T10:41:45;23.92;;;22.27;;
58982;SDS011;44771;49.982;8.560;2024-03-02T10:46:50;23.90;;;22.23;;
58982;SDS011;44771;49.982;8.560;2024-03-02T10:51:53;24.15;;;22.50;;
58982;SDS011;44771;49.982;8.560;2024-03-02T10:56:58;23.95;;;21.87;;
58982;SDS011;44771;49.982;8.560;2024-03-02T11:02:01;23.75;;;22.25;;
58982;SDS011;44771;49.982;8.560;2024-03-02T11:07:07;22.98;;;21.17;;
58982;SDS011;44771;49.982;8.560;2024-03-02T11:12:15;22.40;;;21.20;;
58982;SDS011;44771;49.982;8.560;2024-03-02T11:17:24;23.12;;;21.42;;
58982;SDS011;44771;49.982;8.560;2024-03-02T11:22:27;21.25;;;19.87;;
58982;SDS011;44771;49.982;8.560;2024-03-02T11:33:05;21.52;;;20.23;;
58982;SDS011;44771;49.982;8.560;2024-03-02T11:38:08;24.40;;;21.40;;
58982;SDS011;44771;49.982;8.560;2024-03-02T11:43:12;22.83;;;21.40;;
58982;SDS011;44771;49.982;8.560;2024-03-02T11:48:19;22.05;;;20.50;;
58982;SDS011;44771;49.982;8.560;2024-03-02T11:53:22;21.70;;;20.53;;
58982;SDS011;44771;49.982;8.560;2024-03-02T11:58:37;20.83;;;19.57;;
58982;SDS011;44771;49.982;8.560;2024-03-02T12:03:41;22.95;;;21.62;;
58982;SDS011;44771;49.982;8.560;2024-03-02T12:08:43;22.70;;;21.15;;
58982;SDS011;44771;49.982;8.560;2024-03-02T12:13:53;21.48;;;20.17;;
58982;SDS011;44771;49.982;8.560;2024-03-02T12:18:55;21.05;;;20.05;;
58982;SDS011;44771;49.982;8.560;2024-03-02T12:23:57;20.20;;;19.10;;
58982;SDS011;44771;49.982;8.560;2024-03-02T12:29:00;21.55;;;20.35;;
58982;SDS011;44771;49.982;8.560;2024-03-02T12:34:02;20.52;;;19.25;;
58982;SDS011;44771;49.982;8.560;2024-03-02T12:39:05;20.98;;;19.77;;
58982;SDS011;44771;49.982;8.560;2024-03-02T12:44:09;20.65;;;19.58;;
58982;SDS011;44771;49.982;8.560;2024-03-02T12:49:11;22.67;;;21.37;;
58982;SDS011;44771;49.982;8.560;2024-03-02T12:54:14;22.33;;;20.98;;
58982;SDS011;44771;49.982;8.560;2024-03-02T12:59:21;21.27;;;19.87;;
58982;SDS011;44771;49.982;8.560;2024-03-02T13:04:25;21.40;;;20.10;;
58982;SDS011;44771;49.982;8.560;2024-03-02T13:09:27;21.05;;;19.83;;
58982;SDS011;44771;49.982;8.560;2024-03-02T13:14:33;21.52;;;20.42;;
58982;SDS011;44771;49.982;8.560;2024-03-02T13:19:35;21.17;;;20.08;;
58982;SDS011;44771;49.982;8.560;2024-03-02T13:24:36;20.95;;;19.90;;
58982;SDS011;44771;49.982;8.560;2024-03-02T13:29:40;21.50;;;20.30;;
58982;SDS011;44771;49.982;8.560;2024-03-02T13:34:42;22.60;;;21.30;;
58982;SDS011;44771;49.982;8.560;2024-03-02T13:39:44;22.62;;;21.40;;
58982;SDS011;44771;49.982;8.560;2024-03-02T13:44:47;21.42;;;20.33;;
58982;SDS011;44771;49.982;8.560;2024-03-02T13:49:49;21.25;;;20.05;;
58982;SDS011;44771;49.982;8.560;2024-03-02T13:54:51;20.30;;;19.08;;
58982;SDS011;44771;49.982;8.560;2024-03-02T13:59:54;21.10;;;20.00;;
58982;SDS011;44771;49.982;8.560;2024-03-02T14:04:56;20.50;;;19.45;;
58982;SDS011;44771;49.982;8.560;2024-03-02T14:09:58;20.73;;;19.62;;
58982;SDS011;44771;49.982;8.560;2024-03-02T14:15:01;20.23;;;19.12;;
58982;SDS011;44771;49.982;8.560;2024-03-02T14:20:04;20.35;;;19.02;;
58982;SDS011;44771;49.982;8.560;2024-03-02T14:25:07;21.25;;;19.40;;
58982;SDS011;44771;49.982;8.560;2024-03-02T14:30:11;20.95;;;19.60;;
58982;SDS011;44771;49.982;8.560;2024-03-02T14:35:14;22.63;;;21.33;;
58982;SDS011;44771;49.982;8.560;2024-03-02T14:40:16;22.27;;;21.08;;
58982;SDS011;44771;49.982;8.560;2024-03-02T14:45:19;20.65;;;19.55;;
58982;SDS011;44771;49.982;8.560;2024-03-02T14:50:21;21.73;;;20.25;;
58982;SDS011;44771;49.982;8.560;2024-03-02T14:55:23;21.48;;;20.27;;
58982;SDS011;44771;49.982;8.560;2024-03-02T15:00:26;20.23;;;18.83;;
58982;SDS011;44771;49.982;8.560;2024-03-02T15:05:28;20.42;;;19.30;;
58982;SDS011;44771;49.982;8.560;2024-03-02T15:10:30;20.45;;;19.45;;
58982;SDS011;44771;49.982;8.560;2024-03-02T15:15:33;19.35;;;18.40;;
58982;SDS011;44771;49.982;8.560;2024-03-02T15:20:35;20.48;;;19.42;;
58982;SDS011;44771;49.982;8.560;2024-03-02T15:25:37;21.60;;;20.50;;
58982;SDS011;44771;49.982;8.560;2024-03-02T15:30:40;21.65;;;20.45;;
58982;SDS011;44771;49.982;8.560;2024-03-02T15:35:42;20.73;;;19.65;;
58982;SDS011;44771;49.982;8.560;2024-03-02T15:40:44;21.10;;;20.00;;
58982;SDS011;44771;49.982;8.560;2024-03-02T15:45:47;18.45;;;17.55;;
58982;SDS011;44771;49.982;8.560;2024-03-02T15:50:49;19.70;;;18.60;;
58982;SDS011;44771;49.982;8.560;2024-03-02T15:55:51;20.95;;;19.85;;
58982;SDS011;44771;49.982;8.560;2024-03-02T16:00:54;20.62;;;19.52;;
58982;SDS011;44771;49.982;8.560;2024-03-02T16:05:56;21.10;;;19.80;;
58982;SDS011;44771;49.982;8.560;2024-03-02T16:10:58;20.40;;;19.17;;
58982;SDS011;44771;49.982;8.560;2024-03-02T16:16:04;20.05;;;19.08;;
58982;SDS011;44771;49.982;8.560;2024-03-02T16:21:08;19.92;;;18.92;;
58982;SDS011;44771;49.982;8.560;2024-03-02T16:26:10;21.30;;;20.23;;
58982;SDS011;44771;49.982;8.560;2024-03-02T16:31:13;20.73;;;19.52;;
58982;SDS011;44771;49.982;8.560;2024-03-02T16:36:15;21.80;;;20.70;;
58982;SDS011;44771;49.982;8.560;2024-03-02T16:41:16;20.98;;;19.87;;
58982;SDS011;44771;49.982;8.560;2024-03-02T16:46:20;22.10;;;21.02;;
58982;SDS011;44771;49.982;8.560;2024-03-02T16:51:21;21.00;;;20.00;;
58982;SDS011;44771;49.982;8.560;2024-03-02T16:56:23;22.35;;;21.00;;
58982;SDS011;44771;49.982;8.560;2024-03-02T17:01:26;21.00;;;19.90;;
58982;SDS011;44771;49.982;8.560;2024-03-02T17:06:28;21.42;;;20.17;;
58982;SDS011;44771;49.982;8.560;2024-03-02T17:11:30;20.25;;;19.05;;
58982;SDS011;44771;49.982;8.560;2024-03-02T17:16:33;21.02;;;19.90;;
58982;SDS011;44771;49.982;8.560;2024-03-02T17:21:35;20.48;;;19.40;;
58982;SDS011;44771;49.982;8.560;2024-03-02T17:26:37;20.17;;;19.08;;
58982;SDS011;44771;49.982;8.560;2024-03-02T17:31:40;20.37;;;19.27;;
58982;SDS011;44771;49.982;8.560;2024-03-02T17:36:42;19.95;;;18.87;;
58982;SDS011;44771;49.982;8.560;2024-03-02T17:41:44;19.58;;;18.33;;
58982;SDS011;44771;49.982;8.560;2024-03-02T17:46:47;18.85;;;17.85;;
58982;SDS011;44771;49.982;8.560;2024-03-02T17:51:49;21.60;;;20.05;;
58982;SDS011;44771;49.982;8.560;2024-03-02T17:56:51;20.15;;;19.05;;
58982;SDS011;44771;49.982;8.560;2024-03-02T18:01:54;22.02;;;20.73;;
58982;SDS011;44771;49.982;8.560;2024-03-02T18:06:56;19.80;;;18.73;;
58982;SDS011;44771;49.982;8.560;2024-03-02T18:11:57;20.58;;;19.35;;
58982;SDS011;44771;49.982;8.560;2024-03-02T18:17:01;21.33;;;19.92;;
58982;SDS011;44771;49.982;8.560;2024-03-02T18:22:02;21.05;;;19.95;;
58982;SDS011;44771;49.982;8.560;2024-03-02T18:27:04;21.05;;;19.95;;
58982;SDS011;44771;49.982;8.560;2024-03-02T18:32:08;21.02;;;19.60;;
58982;SDS011;44771;49.982;8.560;2024-03-02T18:37:09;18.62;;;17.73;;
58982;SDS011;44771;49.982;8.560;2024-03-02T18:42:11;21.05;;;19.80;;
58982;SDS011;44771;49.982;8.560;2024-03-02T18:47:15;20.17;;;19.08;;
58982;SDS011;44771;49.982;8.560;2024-03-02T18:52:17;21.17;;;20.08;;
58982;SDS011;44771;49.982;8.560;2024-03-02T18:57:18;19.87;;;18.87;;
58982;SDS011;44771;49.982;8.560;2024-03-02T19:02:22;19.73;;;18.65;;
58982;SDS011;44771;49.982;8.560;2024-03-02T19:07:24;21.17;;;19.60;;
58982;SDS011;44771;49.982;8.560;2024-03-02T19:12:28;20.33;;;19.23;;
58982;SDS011;44771;49.982;8.560;2024-03-02T19:17:31;19.92;;;18.62;;
58982;SDS011;44771;49.982;8.560;2024-03-02T19:22:33;20.85;;;19.65;;
58982;SDS011;44771;49.982;8.560;2024-03-02T19:27:35;20.98;;;19.42;;
58982;SDS011;44771;49.982;8.560;2024-03-02T19:32:38;21.83;;;20.58;;
58982;SDS011;44771;49.982;8.560;2024-03-02T19:37:40;22.10;;;20.33;;
58982;SDS011;44771;49.982;8.560;2024-03-02T19:42:42;21.52;;;20.33;;
58982;SDS011;44771;49.982;8.560;2024-03-02T19:47:46;22.02;;;20.55;;
58982;SDS011;44771;49.982;8.560;2024-03-02T19:52:48;22.27;;;20.88;;
58982;SDS011;44771;49.982;8.560;2024-03-02T19:57:49;22.50;;;21.20;;
58982;SDS011;44771;49.982;8.560;2024-03-02T20:02:53;22.62;;;21.12;;
58982;SDS011;44771;49.982;8.560;2024-03-02T20:07:55;22.48;;;21.00;;
58982;SDS011;44771;49.982;8.560;2024-03-02T20:12:56;21.48;;;19.67;;
58982;SDS011;44771;49.982;8.560;2024-03-02T20:18:00;22.17;;;20.50;;
58982;SDS011;44771;49.982;8.560;2024-03-02T20:23:02;23.05;;;21.30;;
58982;SDS011;44771;49.982;8.560;2024-03-02T20:28:04;23.65;;;22.05;;
58982;SDS011;44771;49.982;8.560;2024-03-02T20:33:07;23.62;;;21.67;;
58982;SDS011;44771;49.982;8.560;2024-03-02T20:38:09;26.48;;;24.30;;
58982;SDS011;44771;49.982;8.560;2024-03-02T20:43:11;25.45;;;23.70;;
58982;SDS011;44771;49.982;8.560;2024-03-02T20:48:14;24.52;;;22.80;;
58982;SDS011;44771;49.982;8.560;2024-03-02T20:53:16;25.27;;;23.65;;
58982;SDS011;44771;49.982;8.560;2024-03-02T20:58:18;22.95;;;21.20;;
58982;SDS011;44771;49.982;8.560;2024-03-02T21:03:21;24.55;;;22.77;;
58982;SDS011;44771;49.982;8.560;2024-03-02T21:08:22;25.00;;;22.85;;
58982;SDS011;44771;49.982;8.560;2024-03-02T21:13:24;24.33;;;22.65;;
58982;SDS011;44771;49.982;8.560;2024-03-02T21:18:27;24.60;;;22.65;;
58982;SDS011;44771;49.982;8.560;2024-03-02T21:23:29;25.65;;;23.12;;
58982;SDS011;44771;49.982;8.560;2024-03-02T21:28:31;24.80;;;22.90;;
58982;SDS011;44771;49.982;8.560;2024-03-02T21:33:34;23.83;;;21.98;;
58982;SDS011;44771;49.982;8.560;2024-03-02T21:38:36;26.02;;;23.90;;
58982;SDS011;44771;49.982;8.560;2024-03-02T21:43:38;22.80;;;21.17;;
58982;SDS011;44771;49.982;8.560;2024-03-02T21:48:41;25.42;;;23.45;;
58982;SDS011;44771;49.982;8.560;2024-03-02T21:53:43;26.08;;;23.35;;
58982;SDS011;44771;49.982;8.560;2024-03-02T21:58:45;25.08;;;23.10;;
58982;SDS011;44771;49.982;8.560;2024-03-02T22:03:48;25.95;;;23.80;;
58982;SDS011;44771;49.982;8.560;2024-03-02T22:08:50;24.37;;;21.98;;
58982;SDS011;44771;49.982;8.560;2024-03-02T22:13:52;23.90;;;21.67;;
58982;SDS011;44771;49.982;8.560;2024-03-02T22:18:55;24.85;;;22.75;;
58982;SDS011;44771;49.982;8.560;2024-03-02T22:23:57;25.60;;;23.30;;
58982;SDS011;44771;49.982;8.560;2024-03-02T22:28:59;25.88;;;24.00;;
58982;SDS011;44771;49.982;8.560;2024-03-02T22:34:02;24.83;;;22.80;;
58982;SDS011;44771;49.982;8.560;2024-03-02T22:39:04;25.45;;;23.55;;
58982;SDS011;44771;49.982;8.560;2024-03-02T22:44:06;25.30;;;22.98;;
58982;SDS011;44771;49.982;8.560;2024-03-02T22:49:09;26.90;;;24.80;;
58982;SDS011;44771;49.982;8.560;2024-03-02T22:54:11;27.67;;;24.90;;
58982;SDS011;44771;49.982;8.560;2024-03-02T22:59:12;25.20;;;22.48;;
58982;SDS011;44771;49.982;8.560;2024-03-02T23:04:16;26.70;;;24.50;;
58982;SDS011;44771;49.982;8.560;2024-03-02T23:09:18;28.55;;;25.67;;
58982;SDS011;44771;49.982;8.560;2024-03-02T23:14:20;26.25;;;23.90;;
58982;SDS011;44771;49.982;8.560;2024-03-02T23:19:23;27.67;;;25.60;;
58982;SDS011;44771;49.982;8.560;2024-03-02T23:24:25;28.62;;;25.62;;
58982;SDS011;44771;49.982;8.560;2024-03-02T23:29:26;25.95;;;23.98;;
58982;SDS011;44771;49.982;8.560;2024-03-02T23:34:30;28.15;;;25.30;;
58982;SDS011;44771;49.982;8.560;2024-03-02T23:39:31;26.95;;;24.15;;
58982;SDS011;44771;49.982;8.560;2024-03-02T23:44:33;31.62;;;26.92;;
58982;SDS011;44771;49.982;8.560;2024-03-02T23:49:36;26.35;;;23.87;;
58982;SDS011;44771;49.982;8.560;2024-03-02T23:54:38;25.40;;;23.45;;
58982;SDS011;44771;49.982;8.560;2024-03-02T23:59:40;27.75;;;24.48;;
